createdAt,value
2022-08-09T00:00:04.400Z,2.80
2022-08-09T00:02:42.942Z,0.98
2022-08-09T00:06:17.602Z,1.92
2022-08-09T00:08:10.852Z,3.78
2022-08-09T00:10:39.400Z,2.03
2022-08-09T00:13:17.543Z,1.30
2022-08-09T00:15:58.143Z,3.75
2022-08-09T00:18:26.888Z,3.72
2022-08-09T00:20:55.673Z,2.95
2022-08-09T00:23:55.082Z,2.03
2022-08-09T00:26:10.986Z,3.00
2022-08-09T00:28:39.409Z,3.00
2022-08-09T00:31:30.455Z,2.95
2022-08-09T00:33:54.332Z,3.17
2022-08-09T00:36:22.407Z,1.52
2022-08-09T00:38:56.877Z,7.35
2022-08-09T00:44:15.930Z,2.85
2022-08-09T00:44:20.074Z,2.72
2022-08-09T00:47:04.482Z,3.88
2022-08-09T00:49:36.758Z,1.98
2022-08-09T00:52:06.182Z,2.25
2022-08-09T00:54:44.946Z,3.15
2022-08-09T00:57:12.681Z,3.17
2022-08-09T00:59:47.141Z,4.70
2022-08-09T01:02:22.154Z,2.70
2022-08-09T01:05:02.609Z,1.88
2022-08-09T01:08:01.187Z,3.90
2022-08-09T01:10:42.837Z,5.75
2022-08-09T01:13:53.419Z,4.38
2022-08-09T01:16:23.258Z,2.67
2022-08-09T01:19:02.484Z,5.13
2022-08-09T01:21:53.533Z,3.88
2022-08-09T01:25:01.039Z,3.30
2022-08-09T01:27:31.231Z,2.33
2022-08-09T01:30:04.414Z,3.08
2022-08-09T01:32:46.188Z,4.47
2022-08-09T01:35:37.443Z,2.85
2022-08-09T01:38:15.553Z,3.42
2022-08-09T01:41:05.541Z,2.83
2022-08-09T01:43:42.174Z,2.33
2022-08-09T01:46:28.914Z,5.45
2022-08-09T01:49:00.286Z,3.03
2022-08-09T01:51:44.444Z,5.85
2022-08-09T01:54:24.197Z,4.00
2022-08-09T01:56:52.484Z,3.53
2022-08-09T01:59:20.801Z,3.38
2022-08-09T02:01:58.588Z,5.65
2022-08-09T02:04:28.333Z,3.47
2022-08-09T02:08:36.065Z,5.22
2022-08-09T02:10:10.820Z,4.20
2022-08-09T02:12:38.203Z,5.43
2022-08-09T02:15:08.548Z,6.28
2022-08-09T02:18:00.799Z,3.97
2022-08-09T02:20:40.627Z,3.50
2022-08-09T02:23:26.096Z,4.90
2022-08-09T02:26:01.140Z,3.33
2022-08-09T02:28:38.521Z,3.40
2022-08-09T02:31:10.791Z,4.20
2022-08-09T02:33:58.321Z,4.80
2022-08-09T02:36:38.008Z,3.97
2022-08-09T02:39:14.547Z,3.03
2022-08-09T02:42:06.659Z,3.08
2022-08-09T02:44:38.578Z,3.97
2022-08-09T02:47:10.172Z,4.72
2022-08-09T02:49:46.048Z,5.82
2022-08-09T02:52:25.849Z,3.70
2022-08-09T02:54:57.414Z,4.32
2022-08-09T02:57:25.875Z,5.20
2022-08-09T03:00:21.257Z,3.95
2022-08-09T03:02:58.422Z,2.80
2022-08-09T03:05:27.993Z,5.10
2022-08-09T03:07:55.811Z,5.43
2022-08-09T03:10:24.555Z,4.75
2022-08-09T03:12:53.081Z,9.13
2022-08-09T03:15:20.828Z,4.72
2022-08-09T03:17:57.881Z,3.70
2022-08-09T03:20:29.428Z,7.97
2022-08-09T03:23:00.385Z,5.20
2022-08-09T03:25:58.664Z,5.38
2022-08-09T03:28:30.427Z,4.75
2022-08-09T03:30:57.933Z,4.28
2022-08-09T03:33:26.624Z,5.65
2022-08-09T03:36:16.855Z,6.00
2022-08-09T03:38:44.879Z,4.50
2022-08-09T03:41:16.645Z,4.95
2022-08-09T03:43:51.683Z,7.97
2022-08-09T03:46:30.697Z,5.35
2022-08-09T03:49:04.084Z,5.22
2022-08-09T03:51:55.419Z,4.57
2022-08-09T03:54:29.794Z,4.50
2022-08-09T03:57:00.025Z,7.95
2022-08-09T03:59:43.034Z,6.35
2022-08-09T04:02:14.320Z,6.35
2022-08-09T04:04:45.621Z,6.38
2022-08-09T04:07:13.232Z,4.05
2022-08-09T04:09:48.214Z,6.07
2022-08-09T04:12:55.548Z,6.60
2022-08-09T04:15:39.107Z,5.97
2022-08-09T04:18:17.935Z,6.47
2022-08-09T04:20:48.745Z,4.82
2022-08-09T04:23:17.399Z,5.55
2022-08-09T04:25:49.871Z,5.25
2022-08-09T04:28:33.547Z,5.65
2022-08-09T04:31:07.652Z,7.38
2022-08-09T04:33:51.800Z,7.00
2022-08-09T04:36:27.303Z,4.90
2022-08-09T04:38:55.398Z,4.60
2022-08-09T04:41:23.431Z,5.78
2022-08-09T04:44:04.893Z,4.90
2022-08-09T04:46:37.832Z,7.10
2022-08-09T04:49:22.177Z,5.43
2022-08-09T04:52:07.516Z,6.28
2022-08-09T04:54:36.954Z,5.25
2022-08-09T04:57:04.131Z,5.22
2022-08-09T04:59:31.441Z,8.13
2022-08-09T05:01:58.308Z,6.03
2022-08-09T05:04:30.630Z,6.60
2022-08-09T05:06:58.392Z,5.55
2022-08-09T05:09:25.406Z,5.82
2022-08-09T05:12:09.541Z,5.63
2022-08-09T05:14:37.877Z,9.32
2022-08-09T05:18:39.658Z,6.18
2022-08-09T05:19:56.820Z,6.03
2022-08-09T05:23:50.606Z,5.57
2022-08-09T05:25:11.125Z,3.72
2022-08-09T05:27:45.357Z,5.22
2022-08-09T05:30:14.355Z,5.75
2022-08-09T05:32:43.520Z,5.60
2022-08-09T05:35:11.314Z,6.90
2022-08-09T05:37:47.564Z,5.60
2022-08-09T05:40:15.306Z,4.95
2022-08-09T05:42:42.923Z,7.65
2022-08-09T05:45:10.856Z,4.10
2022-08-09T05:47:52.356Z,5.13
2022-08-09T05:50:39.865Z,5.18
2022-08-09T05:53:11.726Z,8.88
2022-08-09T05:55:48.578Z,6.28
2022-08-09T05:58:19.774Z,10.82
2022-08-09T06:00:46.456Z,6.60
2022-08-09T06:03:19.624Z,5.50
2022-08-09T06:05:58.147Z,6.32
2022-08-09T06:08:31.787Z,5.43
2022-08-09T06:10:59.125Z,4.22
2022-08-09T06:13:28.215Z,5.50
2022-08-09T06:15:55.671Z,5.65
2022-08-09T06:18:25.492Z,7.75
2022-08-09T06:20:57.272Z,5.22
2022-08-09T06:23:57.582Z,6.53
2022-08-09T06:26:13.922Z,8.98
2022-08-09T06:28:43.292Z,5.60
2022-08-09T06:31:10.937Z,5.20
2022-08-09T06:33:41.729Z,4.65
2022-08-09T06:36:09.524Z,5.22
2022-08-09T06:38:43.959Z,5.32
2022-08-09T06:41:19.237Z,5.43
2022-08-09T06:43:48.363Z,6.07
2022-08-09T06:46:39.271Z,7.13
2022-08-09T06:49:02.857Z,6.88
2022-08-09T06:51:30.326Z,5.93
2022-08-09T06:54:01.034Z,7.15
2022-08-09T06:56:30.922Z,4.63
2022-08-09T07:00:52.032Z,5.07
2022-08-09T07:01:58.204Z,6.97
2022-08-09T07:04:30.907Z,6.28
2022-08-09T07:07:00.638Z,4.18
2022-08-09T07:09:57.035Z,5.35
2022-08-09T07:12:18.710Z,3.47
2022-08-09T07:14:51.286Z,2.55
2022-08-09T07:17:21.650Z,4.47
2022-08-09T07:19:55.198Z,3.38
2022-08-09T07:22:34.747Z,2.67
2022-08-09T07:25:05.217Z,5.53
2022-08-09T07:27:42.760Z,4.53
2022-08-09T07:30:19.638Z,5.07
2022-08-09T07:32:48.728Z,4.07
2022-08-09T07:35:18.412Z,4.75
2022-08-09T07:37:47.917Z,3.75
2022-08-09T07:40:18.853Z,5.45
2022-08-09T07:42:54.238Z,5.22
2022-08-09T07:45:38.280Z,7.57
2022-08-09T07:48:25.461Z,3.55
2022-08-09T07:51:03.064Z,2.75
2022-08-09T07:54:07.056Z,2.40
2022-08-09T07:56:33.580Z,5.28
2022-08-09T07:59:00.254Z,3.08
2022-08-09T08:01:33.998Z,2.38
2022-08-09T08:04:02.537Z,1.58
2022-08-09T08:06:32.148Z,4.72
2022-08-09T08:09:04.951Z,3.10
2022-08-09T08:12:09.918Z,2.15
2022-08-09T08:14:23.996Z,3.92
2022-08-09T08:17:07.503Z,1.77
2022-08-09T08:19:36.228Z,2.25
2022-08-09T08:22:04.450Z,2.53
2022-08-09T08:24:39.926Z,3.42
2022-08-09T08:27:16.856Z,4.38
2022-08-09T08:29:48.691Z,4.25
2022-08-09T08:32:24.395Z,3.63
2022-08-09T08:34:58.996Z,1.50
2022-08-09T08:37:41.645Z,2.45
2022-08-09T08:40:14.147Z,2.10
2022-08-09T08:42:43.607Z,1.90
2022-08-09T08:45:16.338Z,2.42
2022-08-09T08:47:45.010Z,2.42
2022-08-09T08:50:17.705Z,3.95
2022-08-09T08:52:59.460Z,4.90
2022-08-09T08:55:28.118Z,2.35
2022-08-09T08:57:58.542Z,3.28
2022-08-09T09:00:34.261Z,3.63
2022-08-09T09:03:11.511Z,2.90
2022-08-09T09:06:01.146Z,1.83
2022-08-09T09:08:40.849Z,3.83
2022-08-09T09:11:13.645Z,1.90
2022-08-09T09:13:57.621Z,6.75
2022-08-09T09:16:32.345Z,1.85
2022-08-09T09:22:04.079Z,1.38
2022-08-09T09:24:39.912Z,2.00
2022-08-09T09:28:03.588Z,2.55
2022-08-09T09:30:23.741Z,2.10
2022-08-09T09:33:15.396Z,3.17
2022-08-09T09:36:02.045Z,2.35
2022-08-09T09:38:48.609Z,1.98
2022-08-09T09:41:26.160Z,3.42
2022-08-09T09:44:10.780Z,2.83
2022-08-09T09:46:46.074Z,3.47
2022-08-09T09:49:32.049Z,2.80
2022-08-09T09:52:33.735Z,4.57
2022-08-09T09:55:16.516Z,2.40
2022-08-09T09:58:19.359Z,7.43
2022-08-09T10:00:55.504Z,2.72
2022-08-09T10:03:57.044Z,1.80
2022-08-09T10:06:26.045Z,1.92
2022-08-09T10:09:01.235Z,4.30
2022-08-09T10:11:59.774Z,2.45
2022-08-09T10:14:31.898Z,2.03
2022-08-09T10:17:38.916Z,2.25
2022-08-09T10:19:58.129Z,2.75
2022-08-09T10:22:33.073Z,2.08
2022-08-09T10:25:11.007Z,7.43
2022-08-09T10:27:57.357Z,5.20
2022-08-09T10:34:07.957Z,1.90
2022-08-09T10:36:05.399Z,1.67
2022-08-09T10:38:56.327Z,2.03
2022-08-09T10:41:26.348Z,2.65
2022-08-09T10:44:01.439Z,1.45
2022-08-09T10:47:20.493Z,1.30
2022-08-09T10:50:51.763Z,1.58
2022-08-09T10:53:32.085Z,2.65
2022-08-09T10:56:23.923Z,2.25
2022-08-09T10:58:55.734Z,1.42
2022-08-09T11:03:13.786Z,3.30
2022-08-09T11:04:31.450Z,4.72
2022-08-09T11:06:59.946Z,4.82
2022-08-09T11:09:41.237Z,1.67
2022-08-09T11:12:18.775Z,2.67
2022-08-09T11:14:54.827Z,5.40
2022-08-09T11:17:22.633Z,5.55
2022-08-09T11:20:10.173Z,5.70
2022-08-09T11:22:46.942Z,3.40
2022-08-09T11:25:36.197Z,3.30
2022-08-09T11:28:34.593Z,1.42
2022-08-09T11:31:49.153Z,3.22
2022-08-09T11:34:27.246Z,2.20
2022-08-09T11:36:55.766Z,2.40
2022-08-09T11:39:24.163Z,1.85
2022-08-09T11:41:54.625Z,1.45
2022-08-09T11:44:44.321Z,1.02
2022-08-09T11:47:14.562Z,3.78
2022-08-09T11:50:55.759Z,3.55
2022-08-09T11:53:58.692Z,6.20
2022-08-09T11:56:02.136Z,2.47
2022-08-09T11:58:32.932Z,2.20
2022-08-09T12:01:37.583Z,1.98
2022-08-09T12:04:03.678Z,3.67
2022-08-09T12:06:35.315Z,2.10
2022-08-09T12:09:19.687Z,1.10
2022-08-09T12:12:03.239Z,1.35
2022-08-09T12:14:37.261Z,3.22
2022-08-09T12:17:27.633Z,4.18
2022-08-09T12:20:03.683Z,1.40
2022-08-09T12:22:31.272Z,0.93
2022-08-09T12:25:15.408Z,2.53
2022-08-09T12:29:13.478Z,3.67
2022-08-09T12:30:38.428Z,1.58
2022-08-09T12:33:06.203Z,1.65
2022-08-09T12:35:40.197Z,1.23
2022-08-09T12:38:37.834Z,2.47
2022-08-09T12:41:05.673Z,1.50
2022-08-09T12:44:05.777Z,1.60
2022-08-09T12:46:23.578Z,1.05
2022-08-09T12:48:52.747Z,1.63
2022-08-09T12:51:52.702Z,1.55
2022-08-09T12:54:08.262Z,1.25
2022-08-09T12:56:50.977Z,2.67
2022-08-09T12:59:23.010Z,1.83
2022-08-09T13:01:58.746Z,2.15
2022-08-09T13:04:36.934Z,2.22
2022-08-09T13:07:13.801Z,2.67
2022-08-09T13:09:52.601Z,3.55
2022-08-09T13:12:22.364Z,2.03
2022-08-09T13:14:53.862Z,4.20
2022-08-09T13:17:43.797Z,2.05
2022-08-09T13:20:14.049Z,2.00
2022-08-09T13:23:01.624Z,3.63
2022-08-09T13:25:54.396Z,2.05
2022-08-09T13:28:33.941Z,1.20
2022-08-09T13:32:12.514Z,1.15
2022-08-09T13:33:57.432Z,2.05
2022-08-09T13:36:40.510Z,1.65
2022-08-09T13:41:50.893Z,1.45
2022-08-09T13:42:10.910Z,1.77
2022-08-09T13:44:43.022Z,2.40
2022-08-09T13:47:27.452Z,1.70
2022-08-09T13:50:17.825Z,1.50
2022-08-09T13:52:56.872Z,2.90
2022-08-09T13:55:23.564Z,2.42
2022-08-09T13:57:56.259Z,3.05
2022-08-09T14:00:28.582Z,3.70
2022-08-09T14:03:03.414Z,0.82
2022-08-09T14:06:00.034Z,3.05
2022-08-09T14:08:30.580Z,1.58
2022-08-09T14:10:59.387Z,4.30
2022-08-09T14:14:22.168Z,7.50
2022-08-09T14:16:17.547Z,2.38
2022-08-09T14:18:49.079Z,1.10
2022-08-09T14:21:18.714Z,4.28
2022-08-09T14:23:55.641Z,3.80
2022-08-09T14:26:31.826Z,2.15
2022-08-09T14:29:03.320Z,3.13
2022-08-09T14:31:35.730Z,2.13
2022-08-09T14:34:17.622Z,2.10
2022-08-09T14:36:59.342Z,3.78
2022-08-09T14:39:45.621Z,1.63
2022-08-09T14:42:12.817Z,4.38
2022-08-09T14:45:00.350Z,1.40
2022-08-09T14:47:45.426Z,2.83
2022-08-09T14:50:16.092Z,0.90
2022-08-09T14:52:43.358Z,3.13
2022-08-09T14:55:14.709Z,3.45
2022-08-09T14:57:47.229Z,3.45
2022-08-09T15:00:15.712Z,2.28
2022-08-09T15:02:42.349Z,2.45
2022-08-09T15:05:16.884Z,0.90
2022-08-09T15:07:45.623Z,2.65
2022-08-09T15:10:24.960Z,3.83
2022-08-09T15:12:56.585Z,1.00
2022-08-09T15:15:24.709Z,2.90
2022-08-09T15:17:56.331Z,2.45
2022-08-09T15:21:57.533Z,2.22
2022-08-09T15:24:02.370Z,0.88
2022-08-09T15:25:58.434Z,4.20
2022-08-09T15:28:27.785Z,1.33
2022-08-09T15:31:10.229Z,9.93
2022-08-09T15:34:27.418Z,1.42
2022-08-09T15:36:30.333Z,1.70
2022-08-09T15:39:00.809Z,4.53
2022-08-09T15:41:32.029Z,5.05
2022-08-09T15:44:02.886Z,2.22
2022-08-09T15:46:33.152Z,3.40
2022-08-09T15:49:22.272Z,0.85
2022-08-09T15:52:05.032Z,6.40
2022-08-09T15:54:52.520Z,1.00
2022-08-09T15:57:34.581Z,0.95
2022-08-09T16:00:14.668Z,2.20
2022-08-09T16:02:54.250Z,2.53
2022-08-09T16:05:23.372Z,1.48
2022-08-09T16:07:50.803Z,1.33
2022-08-09T16:10:55.138Z,1.80
2022-08-09T16:13:20.876Z,2.45
2022-08-09T16:16:11.627Z,1.50
2022-08-09T16:18:44.699Z,2.47
2022-08-09T16:21:17.060Z,2.33
2022-08-09T16:23:55.752Z,0.70
2022-08-09T16:26:35.507Z,0.80
2022-08-09T16:29:10.696Z,4.40
2022-08-09T16:32:18.159Z,2.58
2022-08-09T16:34:28.758Z,2.03
2022-08-09T16:36:56.588Z,2.35
2022-08-09T16:39:25.612Z,2.53
2022-08-09T16:42:03.222Z,3.35
2022-08-09T16:44:32.226Z,0.77
2022-08-09T16:47:03.825Z,3.38
2022-08-09T16:50:29.627Z,0.70
2022-08-09T16:52:33.256Z,1.27
2022-08-09T16:55:00.169Z,1.98
2022-08-09T16:57:26.884Z,1.17
2022-08-09T17:00:14.852Z,1.38
2022-08-09T17:02:42.764Z,1.92
2022-08-09T17:05:14.009Z,3.83
2022-08-09T17:08:46.924Z,2.05
2022-08-09T17:10:33.667Z,0.73
2022-08-09T17:13:01.361Z,0.82
2022-08-09T17:15:58.451Z,2.60
2022-08-09T17:18:15.345Z,1.48
2022-08-09T17:20:52.332Z,2.17
2022-08-09T17:23:20.263Z,0.80
2022-08-09T17:25:52.861Z,3.72
2022-08-09T17:28:19.966Z,3.10
2022-08-09T17:30:47.781Z,17.65
2022-08-09T17:33:22.398Z,21.25
2022-08-09T17:35:50.090Z,9.30
2022-08-09T17:38:32.076Z,27.88
2022-08-09T17:41:00.551Z,23.48
2022-08-09T17:43:33.516Z,13.27
2022-08-09T17:46:06.220Z,4.22
2022-08-09T17:48:38.953Z,14.60
2022-08-09T17:51:19.439Z,37.63
2022-08-09T17:53:54.677Z,29.88
2022-08-09T17:56:27.855Z,10.05
2022-08-09T17:58:57.778Z,16.48
2022-08-09T18:01:24.641Z,33.30
2022-08-09T18:03:52.527Z,5.10
2022-08-09T18:06:31.274Z,13.32
2022-08-09T18:09:03.404Z,27.95
2022-08-09T18:12:04.775Z,15.15
2022-08-09T18:14:20.240Z,13.30
2022-08-09T18:16:49.135Z,2.60
2022-08-09T18:20:53.883Z,3.88
2022-08-09T18:22:05.453Z,1.05
2022-08-09T18:24:32.262Z,1.65
2022-08-09T18:27:01.203Z,0.70
2022-08-09T18:30:40.712Z,3.17
2022-08-09T18:32:19.121Z,1.80
2022-08-09T18:34:46.029Z,1.58
2022-08-09T18:37:47.987Z,1.92
2022-08-09T18:40:02.198Z,2.17
2022-08-09T18:42:29.632Z,1.23
2022-08-09T18:44:57.125Z,1.55
2022-08-09T18:47:37.232Z,3.88
2022-08-09T18:50:06.161Z,1.75
2022-08-09T18:52:35.891Z,2.33
2022-08-09T18:55:04.330Z,5.30
2022-08-09T18:57:43.079Z,1.25
2022-08-09T19:00:19.196Z,1.98
2022-08-09T19:02:48.450Z,1.88
2022-08-09T19:05:19.873Z,1.55
2022-08-09T19:07:59.112Z,2.28
2022-08-09T19:10:38.914Z,0.82
2022-08-09T19:13:23.107Z,0.90
2022-08-09T19:15:56.833Z,3.55
2022-08-09T19:18:33.870Z,0.70
2022-08-09T19:21:03.440Z,1.35
2022-08-09T19:24:32.015Z,2.53
2022-08-09T19:26:19.481Z,1.05
2022-08-09T19:29:01.674Z,2.65
2022-08-09T19:31:45.515Z,1.55
2022-08-09T19:34:21.839Z,0.80
2022-08-09T19:36:51.856Z,2.50
2022-08-09T19:39:21.022Z,9.93
2022-08-09T19:42:06.062Z,1.25
2022-08-09T19:44:33.993Z,2.45
2022-08-09T19:47:01.634Z,5.88
2022-08-09T19:50:06.830Z,1.42
2022-08-09T19:52:15.674Z,1.48
2022-08-09T19:54:45.132Z,2.67
2022-08-09T19:57:12.314Z,3.40
2022-08-09T20:00:01.880Z,1.58
2022-08-09T20:04:10.032Z,1.17
2022-08-09T20:05:15.189Z,2.50
2022-08-09T20:07:59.398Z,2.47
2022-08-09T20:10:36.842Z,1.90
2022-08-09T20:13:05.560Z,3.78
2022-08-09T20:16:38.241Z,4.03
2022-08-09T20:18:20.127Z,2.42
2022-08-09T20:20:50.380Z,1.65
2022-08-09T20:23:19.384Z,1.25
2022-08-09T20:25:53.344Z,1.95
2022-08-09T20:28:27.625Z,1.25
2022-08-09T20:31:04.991Z,1.77
2022-08-09T20:33:41.357Z,1.05
2022-08-09T20:36:12.240Z,2.47
2022-08-09T20:41:35.098Z,0.85
2022-08-09T20:44:10.529Z,1.40
2022-08-09T20:46:44.084Z,2.13
2022-08-09T20:49:13.027Z,1.52
2022-08-09T20:51:41.727Z,2.15
2022-08-09T20:54:16.641Z,3.30
2022-08-09T20:56:46.895Z,6.30
2022-08-09T20:59:16.846Z,1.20
2022-08-09T21:01:51.548Z,1.67
2022-08-09T21:05:54.686Z,1.02
2022-08-09T21:07:12.294Z,2.55
2022-08-09T21:09:55.551Z,3.20
2022-08-09T21:12:32.203Z,1.77
2022-08-09T21:15:01.326Z,1.52
2022-08-09T21:18:11.500Z,1.90
2022-08-09T21:20:22.842Z,1.23
2022-08-09T21:22:54.195Z,3.95
2022-08-09T21:25:44.095Z,1.35
2022-08-09T21:28:34.950Z,2.05
2022-08-09T21:31:17.668Z,1.13
2022-08-09T21:33:52.758Z,1.33
2022-08-09T21:36:27.992Z,1.67
2022-08-09T21:38:58.604Z,4.68
2022-08-09T21:42:03.547Z,1.85
2022-08-09T21:44:33.832Z,4.63
2022-08-09T21:47:07.716Z,3.42
2022-08-09T21:49:39.383Z,3.17
2022-08-09T21:52:17.450Z,5.55
2022-08-09T21:54:59.285Z,1.75
2022-08-09T21:57:39.242Z,1.80
2022-08-09T22:00:33.263Z,1.40
2022-08-09T22:03:05.513Z,1.95
2022-08-09T22:05:36.580Z,3.33
2022-08-09T22:08:13.008Z,1.63
2022-08-09T22:11:00.551Z,2.38
2022-08-09T22:13:34.067Z,2.05
2022-08-09T22:16:07.155Z,1.30
2022-08-09T22:18:35.861Z,1.10
2022-08-09T22:21:09.519Z,3.67
2022-08-09T22:24:00.020Z,4.20
2022-08-09T22:26:35.375Z,3.67
2022-08-09T22:29:07.498Z,1.92
2022-08-09T22:31:36.186Z,3.03
2022-08-09T22:34:03.328Z,2.15
2022-08-09T22:36:45.756Z,3.00
2022-08-09T22:39:47.265Z,1.75
2022-08-09T22:42:02.859Z,2.85
2022-08-09T22:44:32.867Z,1.67
2022-08-09T22:48:14.551Z,2.17
2022-08-09T22:49:47.790Z,2.67
2022-08-09T22:52:19.840Z,3.33
2022-08-09T22:54:47.577Z,1.80
2022-08-09T22:57:14.914Z,2.45
2022-08-09T22:59:58.105Z,1.63
2022-08-09T23:02:27.472Z,3.60
2022-08-09T23:04:55.379Z,1.48
2022-08-09T23:08:27.324Z,2.80
2022-08-09T23:10:31.194Z,2.00
2022-08-09T23:12:58.882Z,1.63
2022-08-09T23:15:26.592Z,2.05
2022-08-09T23:17:53.385Z,1.73
2022-08-09T23:20:20.232Z,1.92
2022-08-09T23:22:46.945Z,5.05
2022-08-09T23:25:13.672Z,6.40
2022-08-09T23:28:11.852Z,1.55
2022-08-09T23:30:29.535Z,2.72
2022-08-09T23:32:56.232Z,1.50
2022-08-09T23:35:23.210Z,2.28
2022-08-09T23:37:49.880Z,1.70
2022-08-09T23:40:17.257Z,1.75
2022-08-09T23:42:44.107Z,2.65
2022-08-09T23:45:11.367Z,2.25
2022-08-09T23:47:58.081Z,3.20
2022-08-09T23:50:24.834Z,5.75
2022-08-09T23:52:51.502Z,2.55
2022-08-09T23:55:18.721Z,4.10
2022-08-09T23:57:59.050Z,1.65
